Bristol, TN (37620)

8:04 PM EST on February 12, 2016 (GMT -0500)
Old Jonesboro Road | | Change Station
CLOSE
Current Station
Personal Weather Station
Location: Bristol, TN
Elevation: 1795 ft
Nearby Weather Stations

Elev 1795 ft 36.58 °N, 82.14 °W | Updated 1 minute ago

Overcast
Overcast
29.3 °F
Feels Like 25 °F
N
3.7
Wind Variable Wind from West

Today
High -- | Low -- °F
--% Chance of Precip.
Yesterday
High -- | Low -- °F
Precip. -- in
Pressure 30.06 in
Visibility 10.0 miles
Clouds Overcast 1900 ft
Windchill 25 °F
Dew Point 24 °F
Humidity 82%
Rainfall 0.00 in
Snow Depth Not available.
7:20 AM 6:05 PM
Waxing Crescent, 25% visible
METAR KVJI 130055Z AUTO 28008G15KT 10SM OVC019 00/M04 A3006 RMK AO2 T10031045
Pressure 30.06 in
Visibility 10.0 miles
Clouds Overcast 1900 ft
Windchill 25 °F
Dew Point 24 °F
Humidity 82%
Rainfall 0.00 in
Snow Depth Not available.
7:20 AM 6:05 PM
Waxing Crescent, 25% visible
METAR KVJI 130055Z AUTO 28008G15KT 10SM OVC019 00/M04 A3006 RMK AO2 T10031045

10-Day Weather Forecast

Almanac

Astronomy

Feb. 12, 2016 Rise Set
Actual Time
Civil Twilight
Nautical Twilight
Astronomical Twilight
Moon
Length of Visible Light
Length of Day
Tomorrow will be .
, % of the Moon is Illuminated

Today's Extremes

State Highs State Lows

Community

WunderPhotos

Upload Photos

1,892,450 photos uploaded!

WunderBlog® & News

Nearby

Air Quality

  Air Quality AQ Index Pollutant
Not available.

Snow Depth

Station Depth Elevation

Earthquake Activity

City Distance Mag. Time & Date
Minimum magnitude displayed is 2.5.

Coastal Water Temperatures

Place Temperature

Stations

Nearby Weather Stations

Station Location Temp. Windchill Dew Point Humidity Wind Precip. Elev Updated Type
                   

Watches & Warnings

There are currently no watches in effect.